sensor_id;sensor_type;location;lat;lon;timestamp;pressure;altitude;pressure_sealevel;temperature;humidity
74561;BME280;62979;55.720;37.606;2023-03-12T00:01:10;97456.44;;;2.26;78.83
74561;BME280;62979;55.720;37.606;2023-03-12T00:03:38;97452.09;;;2.28;78.99
74561;BME280;62979;55.720;37.606;2023-03-12T00:06:06;97448.78;;;2.23;79.29
74561;BME280;62979;55.720;37.606;2023-03-12T00:08:34;97437.53;;;2.25;79.22
74561;BME280;62979;55.720;37.606;2023-03-12T00:11:05;97439.19;;;2.28;80.61
74561;BME280;62979;55.720;37.606;2023-03-12T00:13:33;97425.53;;;2.24;81.01
74561;BME280;62979;55.720;37.606;2023-03-12T00:16:06;97431.44;;;2.29;81.41
74561;BME280;62979;55.720;37.606;2023-03-12T00:18:34;97428.69;;;2.34;81.61
74561;BME280;62979;55.720;37.606;2023-03-12T00:21:01;97407.19;;;2.35;81.21
74561;BME280;62979;55.720;37.606;2023-03-12T00:23:29;97426.88;;;2.38;81.30
74561;BME280;62979;55.720;37.606;2023-03-12T00:26:01;97398.38;;;2.42;80.92
74561;BME280;62979;55.720;37.606;2023-03-12T00:28:30;97405.09;;;2.48;81.01
74561;BME280;62979;55.720;37.606;2023-03-12T00:30:57;97403.34;;;2.48;81.11
74561;BME280;62979;55.720;37.606;2023-03-12T00:33:24;97394.75;;;2.49;80.92
74561;BME280;62979;55.720;37.606;2023-03-12T00:35:51;97389.38;;;2.55;81.18
74561;BME280;62979;55.720;37.606;2023-03-12T00:38:19;97387.72;;;2.54;81.10
74561;BME280;62979;55.720;37.606;2023-03-12T00:40:46;97384.00;;;2.63;81.15
74561;BME280;62979;55.720;37.606;2023-03-12T00:43:14;97373.63;;;2.65;80.95
74561;BME280;62979;55.720;37.606;2023-03-12T00:45:41;97368.38;;;2.68;81.12
74561;BME280;62979;55.720;37.606;2023-03-12T00:48:08;97366.13;;;2.57;81.11
74561;BME280;62979;55.720;37.606;2023-03-12T00:50:35;97335.91;;;2.61;81.20
74561;BME280;62979;55.720;37.606;2023-03-12T00:53:02;97339.28;;;2.63;81.36
74561;BME280;62979;55.720;37.606;2023-03-12T00:55:29;97333.28;;;2.62;81.52
74561;BME280;62979;55.720;37.606;2023-03-12T00:57:56;97342.63;;;2.66;81.72
74561;BME280;62979;55.720;37.606;2023-03-12T01:00:24;97330.47;;;2.70;81.67
74561;BME280;62979;55.720;37.606;2023-03-12T01:02:52;97321.84;;;2.71;81.76
74561;BME280;62979;55.720;37.606;2023-03-12T01:05:21;97319.97;;;2.76;81.36
74561;BME280;62979;55.720;37.606;2023-03-12T01:07:48;97311.28;;;2.78;81.59
74561;BME280;62979;55.720;37.606;2023-03-12T01:10:16;97310.44;;;2.78;81.44
74561;BME280;62979;55.720;37.606;2023-03-12T01:12:44;97307.66;;;2.84;81.57
74561;BME280;62979;55.720;37.606;2023-03-12T01:15:13;97305.13;;;2.83;81.95
74561;BME280;62979;55.720;37.606;2023-03-12T01:17:45;97299.78;;;2.89;82.00
74561;BME280;62979;55.720;37.606;2023-03-12T01:20:12;97295.34;;;2.92;81.66
74561;BME280;62979;55.720;37.606;2023-03-12T01:22:39;97288.47;;;2.93;81.73
74561;BME280;62979;55.720;37.606;2023-03-12T01:25:07;97269.75;;;2.86;81.80
74561;BME280;62979;55.720;37.606;2023-03-12T01:27:34;97267.97;;;2.88;82.26
74561;BME280;62979;55.720;37.606;2023-03-12T01:30:03;97267.69;;;2.96;82.19
74561;BME280;62979;55.720;37.606;2023-03-12T01:32:30;97269.53;;;2.92;82.98
74561;BME280;62979;55.720;37.606;2023-03-12T01:34:59;97254.84;;;2.94;82.73
74561;BME280;62979;55.720;37.606;2023-03-12T01:37:26;97257.22;;;3.00;82.91
74561;BME280;62979;55.720;37.606;2023-03-12T01:39:53;97267.44;;;3.04;82.78
74561;BME280;62979;55.720;37.606;2023-03-12T01:42:20;97264.81;;;3.05;82.97
74561;BME280;62979;55.720;37.606;2023-03-12T01:44:52;97249.19;;;3.10;83.16
74561;BME280;62979;55.720;37.606;2023-03-12T01:47:21;97247.44;;;3.10;82.99
74561;BME280;62979;55.720;37.606;2023-03-12T01:49:51;97249.91;;;3.13;83.11
74561;BME280;62979;55.720;37.606;2023-03-12T01:52:22;97240.38;;;3.15;83.01
74561;BME280;62979;55.720;37.606;2023-03-12T01:54:56;97240.09;;;3.23;83.00
74561;BME280;62979;55.720;37.606;2023-03-12T01:57:30;97229.72;;;3.25;83.14
74561;BME280;62979;55.720;37.606;2023-03-12T02:00:05;97229.63;;;3.28;83.01
74561;BME280;62979;55.720;37.606;2023-03-12T02:02:36;97221.91;;;3.26;83.43
74561;BME280;62979;55.720;37.606;2023-03-12T02:05:10;97225.16;;;3.31;83.48
74561;BME280;62979;55.720;37.606;2023-03-12T02:07:44;97219.13;;;3.32;83.19
74561;BME280;62979;55.720;37.606;2023-03-12T02:10:11;97218.09;;;3.36;83.36
74561;BME280;62979;55.720;37.606;2023-03-12T02:12:39;97217.09;;;3.40;83.37
74561;BME280;62979;55.720;37.606;2023-03-12T02:15:07;97200.72;;;3.41;83.47
74561;BME280;62979;55.720;37.606;2023-03-12T02:17:35;97184.47;;;3.38;83.49
74561;BME280;62979;55.720;37.606;2023-03-12T02:20:10;97201.16;;;3.53;83.37
74561;BME280;62979;55.720;37.606;2023-03-12T02:22:48;97186.78;;;3.46;83.26
74561;BME280;62979;55.720;37.606;2023-03-12T02:25:29;97177.03;;;3.54;83.32
74561;BME280;62979;55.720;37.606;2023-03-12T02:28:03;97187.25;;;3.57;83.55
74561;BME280;62979;55.720;37.606;2023-03-12T02:30:33;97186.22;;;3.61;83.16
74561;BME280;62979;55.720;37.606;2023-03-12T02:33:04;97181.06;;;3.61;83.72
74561;BME280;62979;55.720;37.606;2023-03-12T02:35:33;97176.66;;;3.63;83.67
74561;BME280;62979;55.720;37.606;2023-03-12T02:38:31;97177.44;;;3.65;83.60
74561;BME280;62979;55.720;37.606;2023-03-12T02:41:09;97158.56;;;3.63;83.70
74561;BME280;62979;55.720;37.606;2023-03-12T02:43:39;97160.28;;;3.64;83.75
74561;BME280;62979;55.720;37.606;2023-03-12T02:46:08;97150.06;;;3.61;83.71
74561;BME280;62979;55.720;37.606;2023-03-12T02:48:35;97147.19;;;3.69;83.57
74561;BME280;62979;55.720;37.606;2023-03-12T02:51:02;97137.81;;;3.66;83.66
74561;BME280;62979;55.720;37.606;2023-03-12T02:53:30;97132.56;;;3.68;83.85
74561;BME280;62979;55.720;37.606;2023-03-12T02:55:56;97129.09;;;3.69;84.01
74561;BME280;62979;55.720;37.606;2023-03-12T02:58:25;97129.66;;;3.75;83.79
74561;BME280;62979;55.720;37.606;2023-03-12T03:00:52;97128.84;;;3.75;83.95
74561;BME280;62979;55.720;37.606;2023-03-12T03:03:19;97121.03;;;3.76;83.92
74561;BME280;62979;55.720;37.606;2023-03-12T03:05:46;97113.16;;;3.79;83.68
74561;BME280;62979;55.720;37.606;2023-03-12T03:08:13;97075.03;;;3.62;83.64
74561;BME280;62979;55.720;37.606;2023-03-12T03:10:40;97098.44;;;3.81;83.75
74561;BME280;62979;55.720;37.606;2023-03-12T03:13:07;97101.84;;;3.82;83.78
74561;BME280;62979;55.720;37.606;2023-03-12T03:15:35;97096.75;;;3.80;83.97
74561;BME280;62979;55.720;37.606;2023-03-12T03:18:03;97089.72;;;3.84;83.83
74561;BME280;62979;55.720;37.606;2023-03-12T03:20:30;97094.75;;;3.87;83.56
74561;BME280;62979;55.720;37.606;2023-03-12T03:22:57;97092.13;;;3.89;83.65
74561;BME280;62979;55.720;37.606;2023-03-12T03:25:24;97070.59;;;3.88;83.61
74561;BME280;62979;55.720;37.606;2023-03-12T03:27:54;97087.56;;;3.95;83.56
74561;BME280;62979;55.720;37.606;2023-03-12T03:30:21;97084.97;;;3.95;83.48
74561;BME280;62979;55.720;37.606;2023-03-12T03:32:49;97078.75;;;3.99;83.49
74561;BME280;62979;55.720;37.606;2023-03-12T03:35:16;97077.88;;;4.00;83.40
74561;BME280;62979;55.720;37.606;2023-03-12T03:37:46;97065.00;;;3.99;83.37
74561;BME280;62979;55.720;37.606;2023-03-12T03:40:13;97051.94;;;4.02;83.29
74561;BME280;62979;55.720;37.606;2023-03-12T03:42:40;97056.06;;;4.06;83.41
74561;BME280;62979;55.720;37.606;2023-03-12T03:45:07;97045.88;;;4.03;83.25
74561;BME280;62979;55.720;37.606;2023-03-12T03:47:35;97045.78;;;4.04;83.47
74561;BME280;62979;55.720;37.606;2023-03-12T03:50:05;97044.81;;;4.07;83.64
74561;BME280;62979;55.720;37.606;2023-03-12T03:52:32;97019.94;;;4.04;83.49
74561;BME280;62979;55.720;37.606;2023-03-12T03:54:59;97030.09;;;4.09;83.57
74561;BME280;62979;55.720;37.606;2023-03-12T03:57:27;97027.63;;;4.06;83.80
74561;BME280;62979;55.720;37.606;2023-03-12T03:59:54;97012.13;;;4.06;83.57
74561;BME280;62979;55.720;37.606;2023-03-12T04:02:23;97011.97;;;4.09;83.85
74561;BME280;62979;55.720;37.606;2023-03-12T04:04:51;97009.94;;;4.17;83.77
74561;BME280;62979;55.720;37.606;2023-03-12T04:07:20;97014.84;;;4.23;83.84
74561;BME280;62979;55.720;37.606;2023-03-12T04:09:47;96999.31;;;4.23;83.63
74561;BME280;62979;55.720;37.606;2023-03-12T04:12:15;97001.00;;;4.24;83.62
74561;BME280;62979;55.720;37.606;2023-03-12T04:14:42;96975.72;;;4.11;83.77
74561;BME280;62979;55.720;37.606;2023-03-12T04:17:09;96995.84;;;4.24;83.71
74561;BME280;62979;55.720;37.606;2023-03-12T04:19:36;96984.56;;;4.25;83.88
74561;BME280;62979;55.720;37.606;2023-03-12T04:22:03;96979.25;;;4.28;83.80
74561;BME280;62979;55.720;37.606;2023-03-12T04:24:32;96983.41;;;4.33;83.75
74561;BME280;62979;55.720;37.606;2023-03-12T04:26:58;96978.19;;;4.34;83.51
74561;BME280;62979;55.720;37.606;2023-03-12T04:29:25;96970.81;;;4.25;83.77
74561;BME280;62979;55.720;37.606;2023-03-12T04:31:53;96966.97;;;4.34;83.68
74561;BME280;62979;55.720;37.606;2023-03-12T04:34:20;96970.13;;;4.40;83.70
74561;BME280;62979;55.720;37.606;2023-03-12T04:36:47;96971.88;;;4.40;83.65
74561;BME280;62979;55.720;37.606;2023-03-12T04:39:16;96964.81;;;4.43;83.61
74561;BME280;62979;55.720;37.606;2023-03-12T04:41:46;96958.66;;;4.46;83.45
74561;BME280;62979;55.720;37.606;2023-03-12T04:44:13;96955.34;;;4.44;83.49
74561;BME280;62979;55.720;37.606;2023-03-12T04:46:41;96952.81;;;4.42;83.53
74561;BME280;62979;55.720;37.606;2023-03-12T04:49:09;96950.78;;;4.49;83.45
74561;BME280;62979;55.720;37.606;2023-03-12T04:51:36;96948.41;;;4.44;83.62
74561;BME280;62979;55.720;37.606;2023-03-12T04:54:03;96943.03;;;4.49;83.60
74561;BME280;62979;55.720;37.606;2023-03-12T04:56:30;96953.19;;;4.54;83.46
74561;BME280;62979;55.720;37.606;2023-03-12T04:58:58;96947.91;;;4.55;83.63
74561;BME280;62979;55.720;37.606;2023-03-12T05:01:28;96938.28;;;4.59;83.54
74561;BME280;62979;55.720;37.606;2023-03-12T05:03:56;96939.91;;;4.61;83.49
74561;BME280;62979;55.720;37.606;2023-03-12T05:06:24;96927.00;;;4.60;83.61
74561;BME280;62979;55.720;37.606;2023-03-12T05:08:51;96900.06;;;4.45;83.47
74561;BME280;62979;55.720;37.606;2023-03-12T05:11:18;96934.41;;;4.67;83.40
74561;BME280;62979;55.720;37.606;2023-03-12T05:13:46;96924.00;;;4.69;83.42
74561;BME280;62979;55.720;37.606;2023-03-12T05:16:16;96917.13;;;4.68;83.75
74561;BME280;62979;55.720;37.606;2023-03-12T05:18:44;96917.69;;;4.75;83.74
74561;BME280;62979;55.720;37.606;2023-03-12T05:21:16;96904.00;;;4.72;83.86
74561;BME280;62979;55.720;37.606;2023-03-12T05:23:45;96901.13;;;4.79;83.75
74561;BME280;62979;55.720;37.606;2023-03-12T05:26:17;96888.19;;;4.79;83.93
74561;BME280;62979;55.720;37.606;2023-03-12T05:28:45;96903.41;;;4.85;83.74
74561;BME280;62979;55.720;37.606;2023-03-12T05:31:12;96909.88;;;4.95;83.61
74561;BME280;62979;55.720;37.606;2023-03-12T05:33:42;96878.25;;;4.88;83.52
74561;BME280;62979;55.720;37.606;2023-03-12T05:36:10;96895.94;;;4.98;83.25
74561;BME280;62979;55.720;37.606;2023-03-12T05:38:37;96873.34;;;4.82;83.15
74561;BME280;62979;55.720;37.606;2023-03-12T05:41:08;96891.50;;;5.00;83.27
74561;BME280;62979;55.720;37.606;2023-03-12T05:43:39;96896.69;;;5.00;83.69
74561;BME280;62979;55.720;37.606;2023-03-12T05:46:08;96892.44;;;4.99;83.61
74561;BME280;62979;55.720;37.606;2023-03-12T05:48:34;96879.19;;;5.05;83.77
74561;BME280;62979;55.720;37.606;2023-03-12T05:51:03;96870.50;;;5.06;83.57
74561;BME280;62979;55.720;37.606;2023-03-12T05:53:30;96878.88;;;5.11;83.60
74561;BME280;62979;55.720;37.606;2023-03-12T05:56:01;96860.16;;;5.06;83.84
74561;BME280;62979;55.720;37.606;2023-03-12T05:58:29;96856.28;;;5.14;83.70
74561;BME280;62979;55.720;37.606;2023-03-12T06:00:56;96869.25;;;5.14;83.87
74561;BME280;62979;55.720;37.606;2023-03-12T06:03:23;96868.31;;;5.15;84.28
74561;BME280;62979;55.720;37.606;2023-03-12T06:05:50;96863.91;;;5.18;84.14
74561;BME280;62979;55.720;37.606;2023-03-12T06:08:21;96855.97;;;5.21;84.19
74561;BME280;62979;55.720;37.606;2023-03-12T06:10:49;96855.03;;;5.22;84.10
74561;BME280;62979;55.720;37.606;2023-03-12T06:13:17;96841.63;;;5.13;83.94
74561;BME280;62979;55.720;37.606;2023-03-12T06:15:44;96859.03;;;5.29;84.12
74561;BME280;62979;55.720;37.606;2023-03-12T06:18:11;96856.44;;;5.29;84.21
74561;BME280;62979;55.720;37.606;2023-03-12T06:20:38;96852.94;;;5.30;84.02
74561;BME280;62979;55.720;37.606;2023-03-12T06:23:05;96851.13;;;5.32;84.15
74561;BME280;62979;55.720;37.606;2023-03-12T06:25:33;96849.41;;;5.31;84.05
74561;BME280;62979;55.720;37.606;2023-03-12T06:28:00;96850.97;;;5.35;84.00
74561;BME280;62979;55.720;37.606;2023-03-12T06:30:27;96827.19;;;5.27;84.14
74561;BME280;62979;55.720;37.606;2023-03-12T06:32:54;96837.78;;;5.40;84.04
74561;BME280;62979;55.720;37.606;2023-03-12T06:35:21;96839.53;;;5.39;83.90
74561;BME280;62979;55.720;37.606;2023-03-12T06:37:48;96825.66;;;5.40;83.95
74561;BME280;62979;55.720;37.606;2023-03-12T06:40:15;96839.28;;;5.44;84.04
74561;BME280;62979;55.720;37.606;2023-03-12T06:42:43;96816.56;;;5.31;83.99
74561;BME280;62979;55.720;37.606;2023-03-12T06:45:10;96821.06;;;5.45;84.09
74561;BME280;62979;55.720;37.606;2023-03-12T06:47:37;96830.69;;;5.43;84.31
74561;BME280;62979;55.720;37.606;2023-03-12T06:50:04;96818.25;;;5.50;84.23
74561;BME280;62979;55.720;37.606;2023-03-12T06:52:31;96822.44;;;5.52;84.07
74561;BME280;62979;55.720;37.606;2023-03-12T06:54:58;96803.38;;;5.53;84.34
74561;BME280;62979;55.720;37.606;2023-03-12T06:57:25;96795.16;;;5.45;84.38
74561;BME280;62979;55.720;37.606;2023-03-12T06:59:53;96808.56;;;5.53;84.30
74561;BME280;62979;55.720;37.606;2023-03-12T07:02:20;96796.09;;;5.44;84.30
74561;BME280;62979;55.720;37.606;2023-03-12T07:04:47;96793.34;;;5.47;84.37
74561;BME280;62979;55.720;37.606;2023-03-12T07:07:14;96794.88;;;5.51;84.39
74561;BME280;62979;55.720;37.606;2023-03-12T07:09:41;96798.94;;;5.55;84.24
74561;BME280;62979;55.720;37.606;2023-03-12T07:12:08;96797.88;;;5.60;84.18
74561;BME280;62979;55.720;37.606;2023-03-12T07:14:35;96788.88;;;5.67;84.16
74561;BME280;62979;55.720;37.606;2023-03-12T07:17:04;96792.53;;;5.63;84.22
74561;BME280;62979;55.720;37.606;2023-03-12T07:19:31;96775.31;;;5.62;84.22
74561;BME280;62979;55.720;37.606;2023-03-12T07:21:58;96779.34;;;5.67;84.26
74561;BME280;62979;55.720;37.606;2023-03-12T07:24:24;96775.59;;;5.73;84.11
74561;BME280;62979;55.720;37.606;2023-03-12T07:26:51;96766.06;;;5.73;83.92
74561;BME280;62979;55.720;37.606;2023-03-12T07:29:18;96758.38;;;5.72;84.02
74561;BME280;62979;55.720;37.606;2023-03-12T07:31:45;96762.31;;;5.79;83.75
74561;BME280;62979;55.720;37.606;2023-03-12T07:34:13;96769.03;;;5.83;83.64
74561;BME280;62979;55.720;37.606;2023-03-12T07:36:41;96785.66;;;5.79;83.73
74561;BME280;62979;55.720;37.606;2023-03-12T07:39:07;96748.75;;;5.74;83.89
74561;BME280;62979;55.720;37.606;2023-03-12T07:41:34;96747.94;;;5.73;84.14
74561;BME280;62979;55.720;37.606;2023-03-12T07:44:04;96749.19;;;5.82;83.71
74561;BME280;62979;55.720;37.606;2023-03-12T07:46:31;96753.59;;;5.80;83.75
74561;BME280;62979;55.720;37.606;2023-03-12T07:48:58;96744.59;;;5.87;83.67
74561;BME280;62979;55.720;37.606;2023-03-12T07:51:26;96737.50;;;5.91;83.58
74561;BME280;62979;55.720;37.606;2023-03-12T07:53:53;96740.78;;;5.94;83.68
74561;BME280;62979;55.720;37.606;2023-03-12T07:56:20;96708.78;;;5.78;83.76
74561;BME280;62979;55.720;37.606;2023-03-12T07:58:47;96728.56;;;5.96;83.70
74561;BME280;62979;55.720;37.606;2023-03-12T08:01:14;96719.13;;;5.95;83.40
74561;BME280;62979;55.720;37.606;2023-03-12T08:03:41;96728.41;;;5.99;83.55
74561;BME280;62979;55.720;37.606;2023-03-12T08:06:08;96724.72;;;6.04;83.65
74561;BME280;62979;55.720;37.606;2023-03-12T08:08:36;96728.41;;;5.99;83.52
74561;BME280;62979;55.720;37.606;2023-03-12T08:11:06;96702.19;;;5.88;83.63
74561;BME280;62979;55.720;37.606;2023-03-12T08:13:34;96727.16;;;6.07;83.59
74561;BME280;62979;55.720;37.606;2023-03-12T08:16:01;96718.47;;;6.08;83.74
74561;BME280;62979;55.720;37.606;2023-03-12T08:18:28;96720.13;;;6.09;83.76
74561;BME280;62979;55.720;37.606;2023-03-12T08:20:55;96713.34;;;6.06;83.54
74561;BME280;62979;55.720;37.606;2023-03-12T08:23:22;96710.09;;;6.03;83.84
74561;BME280;62979;55.720;37.606;2023-03-12T08:25:52;96704.34;;;5.97;83.81
74561;BME280;62979;55.720;37.606;2023-03-12T08:28:21;96690.69;;;5.94;83.94
74561;BME280;62979;55.720;37.606;2023-03-12T08:30:50;96686.75;;;6.03;84.06
74561;BME280;62979;55.720;37.606;2023-03-12T08:33:19;96682.41;;;6.03;84.09
74561;BME280;62979;55.720;37.606;2023-03-12T08:35:47;96673.22;;;5.97;84.10
74561;BME280;62979;55.720;37.606;2023-03-12T08:38:15;96672.44;;;6.11;84.41
74561;BME280;62979;55.720;37.606;2023-03-12T08:40:42;96668.16;;;6.10;84.28
74561;BME280;62979;55.720;37.606;2023-03-12T08:43:10;96646.59;;;6.10;84.09
74561;BME280;62979;55.720;37.606;2023-03-12T08:45:37;96639.13;;;6.04;84.04
74561;BME280;62979;55.720;37.606;2023-03-12T08:48:05;96644.56;;;6.15;84.13
74561;BME280;62979;55.720;37.606;2023-03-12T08:50:34;96640.13;;;6.17;84.01
74561;BME280;62979;55.720;37.606;2023-03-12T08:53:00;96635.66;;;6.19;83.91
74561;BME280;62979;55.720;37.606;2023-03-12T08:55:27;96599.66;;;5.98;83.66
74561;BME280;62979;55.720;37.606;2023-03-12T08:57:55;96631.41;;;6.18;83.60
74561;BME280;62979;55.720;37.606;2023-03-12T09:00:23;96611.00;;;6.12;83.46
74561;BME280;62979;55.720;37.606;2023-03-12T09:02:50;96638.94;;;6.22;83.90
74561;BME280;62979;55.720;37.606;2023-03-12T09:05:18;96630.16;;;6.25;83.77
74561;BME280;62979;55.720;37.606;2023-03-12T09:07:46;96615.78;;;6.19;83.77
74561;BME280;62979;55.720;37.606;2023-03-12T09:10:14;96613.84;;;6.23;83.65
74561;BME280;62979;55.720;37.606;2023-03-12T09:12:41;96618.09;;;6.24;83.67
74561;BME280;62979;55.720;37.606;2023-03-12T09:15:09;96612.06;;;6.24;83.46
74561;BME280;62979;55.720;37.606;2023-03-12T09:17:38;96601.50;;;6.27;83.39
74561;BME280;62979;55.720;37.606;2023-03-12T09:20:06;96591.50;;;6.20;83.21
74561;BME280;62979;55.720;37.606;2023-03-12T09:22:38;96601.34;;;6.30;83.06
74561;BME280;62979;55.720;37.606;2023-03-12T09:25:07;96600.59;;;6.28;83.26
74561;BME280;62979;55.720;37.606;2023-03-12T09:27:36;96601.09;;;6.34;83.00
74561;BME280;62979;55.720;37.606;2023-03-12T09:30:05;96602.94;;;6.32;82.90
74561;BME280;62979;55.720;37.606;2023-03-12T09:32:33;96577.31;;;6.26;82.80
74561;BME280;62979;55.720;37.606;2023-03-12T09:35:02;96585.25;;;6.39;82.82
74561;BME280;62979;55.720;37.606;2023-03-12T09:37:29;96576.63;;;6.38;82.87
74561;BME280;62979;55.720;37.606;2023-03-12T09:39:57;96562.50;;;6.28;82.75
74561;BME280;62979;55.720;37.606;2023-03-12T09:42:26;96561.69;;;6.28;82.86
74561;BME280;62979;55.720;37.606;2023-03-12T09:45:01;96561.41;;;6.32;82.51
74561;BME280;62979;55.720;37.606;2023-03-12T09:47:32;96549.59;;;6.27;82.55
74561;BME280;62979;55.720;37.606;2023-03-12T09:50:07;96556.47;;;6.28;83.02
74561;BME280;62979;55.720;37.606;2023-03-12T09:52:52;96553.13;;;6.26;83.87
74561;BME280;62979;55.720;37.606;2023-03-12T09:55:23;96538.94;;;6.17;83.63
74561;BME280;62979;55.720;37.606;2023-03-12T09:57:53;96542.28;;;6.19;83.87
74561;BME280;62979;55.720;37.606;2023-03-12T10:00:23;96523.75;;;6.25;84.07
74561;BME280;62979;55.720;37.606;2023-03-12T10:03:17;96521.50;;;6.19;83.84
74561;BME280;62979;55.720;37.606;2023-03-12T10:06:03;96514.28;;;6.24;83.81
74561;BME280;62979;55.720;37.606;2023-03-12T10:08:45;96505.59;;;6.25;83.61
74561;BME280;62979;55.720;37.606;2023-03-12T10:11:31;96473.41;;;6.13;83.44
74561;BME280;62979;55.720;37.606;2023-03-12T10:14:18;96488.19;;;6.27;83.43
74561;BME280;62979;55.720;37.606;2023-03-12T10:16:58;96485.31;;;6.32;83.07
74561;BME280;62979;55.720;37.606;2023-03-12T10:19:55;96480.22;;;6.30;82.56
74561;BME280;62979;55.720;37.606;2023-03-12T10:22:47;96481.78;;;6.33;82.26
74561;BME280;62979;55.720;37.606;2023-03-12T10:25:25;96482.28;;;6.39;82.22
74561;BME280;62979;55.720;37.606;2023-03-12T10:27:58;96477.84;;;6.41;82.06
74561;BME280;62979;55.720;37.606;2023-03-12T10:30:40;96466.31;;;6.31;82.07
74561;BME280;62979;55.720;37.606;2023-03-12T10:33:14;96471.50;;;6.46;82.21
74561;BME280;62979;55.720;37.606;2023-03-12T10:35:44;96464.75;;;6.43;82.02
74561;BME280;62979;55.720;37.606;2023-03-12T10:38:16;96460.97;;;6.49;81.89
74561;BME280;62979;55.720;37.606;2023-03-12T10:40:46;96460.78;;;6.52;81.76
74561;BME280;62979;55.720;37.606;2023-03-12T10:43:13;96456.50;;;6.51;81.88
74561;BME280;62979;55.720;37.606;2023-03-12T10:45:45;96455.31;;;6.56;81.79
74561;BME280;62979;55.720;37.606;2023-03-12T10:48:19;96452.25;;;6.50;81.64
74561;BME280;62979;55.720;37.606;2023-03-12T10:51:01;96440.75;;;6.54;81.37
74561;BME280;62979;55.720;37.606;2023-03-12T10:53:31;96442.59;;;6.52;81.67
74561;BME280;62979;55.720;37.606;2023-03-12T10:56:02;96443.16;;;6.57;81.70
74561;BME280;62979;55.720;37.606;2023-03-12T10:58:35;96439.81;;;6.55;81.60
74561;BME280;62979;55.720;37.606;2023-03-12T11:01:06;96436.13;;;6.59;81.69
74561;BME280;62979;55.720;37.606;2023-03-12T11:03:44;96438.72;;;6.59;81.66
74561;BME280;62979;55.720;37.606;2023-03-12T11:06:20;96432.38;;;6.63;81.74
74561;BME280;62979;55.720;37.606;2023-03-12T11:09:04;96432.56;;;6.60;81.73
74561;BME280;62979;55.720;37.606;2023-03-12T11:11:34;96432.78;;;6.57;81.67
74561;BME280;62979;55.720;37.606;2023-03-12T11:14:07;96423.22;;;6.57;81.69
74561;BME280;62979;55.720;37.606;2023-03-12T11:16:41;96413.66;;;6.58;81.93
74561;BME280;62979;55.720;37.606;2023-03-12T11:19:11;96416.16;;;6.59;81.99
74561;BME280;62979;55.720;37.606;2023-03-12T11:21:53;96412.91;;;6.56;81.81
74561;BME280;62979;55.720;37.606;2023-03-12T11:24:23;96418.69;;;6.61;81.94
74561;BME280;62979;55.720;37.606;2023-03-12T11:26:52;96412.28;;;6.67;82.13
74561;BME280;62979;55.720;37.606;2023-03-12T11:29:27;96396.91;;;6.63;82.13
74561;BME280;62979;55.720;37.606;2023-03-12T11:32:02;96402.34;;;6.73;82.03
74561;BME280;62979;55.720;37.606;2023-03-12T11:34:37;96412.00;;;6.71;81.88
74561;BME280;62979;55.720;37.606;2023-03-12T11:37:10;96418.28;;;6.67;81.88
74561;BME280;62979;55.720;37.606;2023-03-12T11:39:57;96409.97;;;6.62;81.96
74561;BME280;62979;55.720;37.606;2023-03-12T11:42:41;96436.13;;;6.59;82.10
74561;BME280;62979;55.720;37.606;2023-03-12T11:45:22;96469.38;;;6.38;81.55
74561;BME280;62979;55.720;37.606;2023-03-12T11:48:05;96482.03;;;6.14;82.03
74561;BME280;62979;55.720;37.606;2023-03-12T11:50:48;96478.00;;;5.32;80.91
74561;BME280;62979;55.720;37.606;2023-03-12T11:53:34;96489.81;;;4.72;81.87
74561;BME280;62979;55.720;37.606;2023-03-12T11:56:23;96486.09;;;4.45;81.94
74561;BME280;62979;55.720;37.606;2023-03-12T11:59:20;96507.50;;;4.14;81.24
74561;BME280;62979;55.720;37.606;2023-03-12T12:02:08;96508.63;;;3.73;80.96
74561;BME280;62979;55.720;37.606;2023-03-12T12:08:17;96533.97;;;3.48;80.54
74561;BME280;62979;55.720;37.606;2023-03-12T12:11:02;96530.34;;;3.14;80.14
74561;BME280;62979;55.720;37.606;2023-03-12T12:13:44;96559.88;;;3.27;80.69
74561;BME280;62979;55.720;37.606;2023-03-12T12:16:33;96561.47;;;3.11;79.48
74561;BME280;62979;55.720;37.606;2023-03-12T12:19:38;96583.66;;;3.34;81.42
74561;BME280;62979;55.720;37.606;2023-03-12T12:22:28;96585.56;;;3.30;79.48
74561;BME280;62979;55.720;37.606;2023-03-12T12:25:31;96588.53;;;3.02;78.57
74561;BME280;62979;55.720;37.606;2023-03-12T12:28:55;96593.16;;;2.95;79.40
74561;BME280;62979;55.720;37.606;2023-03-12T12:31:45;96604.88;;;3.03;80.22
74561;BME280;62979;55.720;37.606;2023-03-12T12:34:52;96623.50;;;2.90;78.95
74561;BME280;62979;55.720;37.606;2023-03-12T12:37:43;96622.47;;;2.74;78.94
74561;BME280;62979;55.720;37.606;2023-03-12T12:40:24;96624.00;;;2.57;79.21
74561;BME280;62979;55.720;37.606;2023-03-12T12:43:01;96634.31;;;2.57;79.59
74561;BME280;62979;55.720;37.606;2023-03-12T12:45:40;96643.84;;;2.55;79.25
74561;BME280;62979;55.720;37.606;2023-03-12T12:48:11;96630.53;;;2.24;78.60
74561;BME280;62979;55.720;37.606;2023-03-12T12:50:42;96644.00;;;2.10;79.42
74561;BME280;62979;55.720;37.606;2023-03-12T12:53:15;96633.88;;;2.05;80.08
74561;BME280;62979;55.720;37.606;2023-03-12T12:55:53;96644.41;;;1.99;79.72
74561;BME280;62979;55.720;37.606;2023-03-12T12:58:45;96648.91;;;1.94;80.49
74561;BME280;62979;55.720;37.606;2023-03-12T13:01:29;96671.09;;;1.76;80.61
74561;BME280;62979;55.720;37.606;2023-03-12T13:04:01;96659.50;;;1.41;83.69
74561;BME280;62979;55.720;37.606;2023-03-12T13:06:52;96667.97;;;1.44;85.41
74561;BME280;62979;55.720;37.606;2023-03-12T13:09:39;96676.00;;;1.37;85.32
74561;BME280;62979;55.720;37.606;2023-03-12T13:12:19;96695.66;;;1.14;83.33
74561;BME280;62979;55.720;37.606;2023-03-12T13:14:51;96711.75;;;0.96;82.35
74561;BME280;62979;55.720;37.606;2023-03-12T13:17:25;96720.59;;;0.87;82.14
74561;BME280;62979;55.720;37.606;2023-03-12T13:23:08;96733.84;;;0.76;82.21
74561;BME280;62979;55.720;37.606;2023-03-12T13:36:59;96782.91;;;-0.46;87.95
74561;BME280;62979;55.720;37.606;2023-03-12T13:39:29;96778.47;;;-0.39;89.00